Terminal Aerodrome Forecast
Issued by NWS Sterling, VA

Current Version | Previous Version | Text Only | Print | Product List | Glossary Off
Versions: 1 2 3 4 5 6 7 8 9 10 11 12 13 14 15 16 17

000
FTUS41 KLWX 020951 AAB
TAFMRB
TAF AMD
KMRB 020951Z 0210/0306 VRB03KT 2SM BR SCT002
      TEMPO 0210/0212 1/4SM FG BKN002
     FM021200 33004KT P6SM FEW090
     FM021500 33007KT P6SM FEW050=

USA.gov is the U.S. government's official web portal to all federal, state and local government web resources and services.